RJAZ(METAR)
08/22 17:00
RJAZ 220800Z 23008KT 9999 SCT008 BKNXXX 28/26 Q1013 RMK A2994=
戻る
トップページへ戻る
IMOC Co,.Ltd.